createdAt,value
2019-05-21T00:01:22.883Z,42.50
2019-05-21T00:03:56.618Z,40.80
2019-05-21T00:06:30.346Z,42.25
2019-05-21T00:09:04.786Z,42.25
2019-05-21T00:11:38.522Z,42.75
2019-05-21T00:14:12.219Z,46.00
2019-05-21T00:16:45.935Z,46.00
2019-05-21T00:19:19.660Z,43.40
2019-05-21T00:21:53.362Z,41.50
2019-05-21T00:24:27.078Z,42.00
2019-05-21T00:27:00.815Z,41.20
2019-05-21T00:30:11.024Z,40.25
2019-05-21T00:33:21.253Z,44.40
2019-05-21T00:36:31.727Z,39.75
2019-05-21T00:39:42.073Z,43.50
2019-05-21T00:42:19.044Z,41.00
2019-05-21T00:44:52.747Z,43.60
2019-05-21T00:47:26.475Z,43.25
2019-05-21T00:50:00.179Z,42.25
2019-05-21T00:52:33.985Z,43.25
2019-05-21T00:55:07.712Z,46.00
2019-05-21T00:57:41.422Z,47.00
2019-05-21T01:00:15.327Z,45.75
2019-05-21T01:02:49.120Z,45.25
2019-05-21T01:05:22.853Z,48.00
2019-05-21T01:07:56.929Z,45.50
2019-05-21T01:10:30.858Z,38.00
2019-05-21T01:13:08.298Z,47.75
2019-05-21T01:15:42.268Z,49.50
2019-05-21T01:18:15.991Z,51.20
2019-05-21T01:20:49.772Z,52.25
2019-05-21T01:23:23.551Z,53.00
2019-05-21T01:25:57.262Z,54.00
2019-05-21T01:28:30.974Z,52.80
2019-05-21T01:31:05.238Z,55.00
2019-05-21T01:33:38.989Z,57.60
2019-05-21T01:36:13.243Z,55.80
2019-05-21T01:38:46.992Z,56.20
2019-05-21T01:41:20.696Z,58.00
2019-05-21T01:43:54.413Z,58.50
2019-05-21T01:46:28.122Z,57.50
2019-05-21T01:49:01.992Z,56.80
2019-05-21T01:51:35.699Z,60.25
2019-05-21T01:54:09.420Z,58.00
2019-05-21T01:56:43.390Z,58.50
2019-05-21T01:59:17.123Z,56.00
2019-05-21T02:01:50.821Z,57.50
2019-05-21T02:04:24.537Z,57.75
2019-05-21T02:06:58.430Z,54.75
2019-05-21T02:09:32.209Z,55.20
2019-05-21T02:12:05.939Z,53.50
2019-05-21T02:14:39.676Z,56.00
2019-05-21T02:17:13.415Z,55.20
2019-05-21T02:19:47.140Z,53.75
2019-05-21T02:22:20.848Z,57.50
2019-05-21T02:24:54.562Z,56.75
2019-05-21T02:27:28.285Z,52.75
2019-05-21T02:30:02.299Z,55.25
2019-05-21T02:32:36.529Z,55.75
2019-05-21T02:35:10.235Z,57.20
2019-05-21T02:37:43.943Z,56.50
2019-05-21T02:40:17.658Z,58.60
2019-05-21T02:42:51.371Z,58.00
2019-05-21T02:45:25.093Z,58.50
2019-05-21T02:47:58.794Z,61.00
2019-05-21T02:50:32.524Z,58.25
2019-05-21T02:53:06.234Z,56.00
2019-05-21T02:55:39.944Z,56.25
2019-05-21T02:58:13.656Z,57.25
2019-05-21T03:00:47.372Z,58.60
2019-05-21T03:03:21.088Z,57.50
2019-05-21T03:06:12.471Z,58.25
2019-05-21T03:08:30.207Z,57.25
2019-05-21T03:11:03.936Z,60.25
2019-05-21T03:13:37.654Z,60.20
2019-05-21T03:16:11.353Z,61.00
2019-05-21T03:18:45.077Z,62.00
2019-05-21T03:21:18.802Z,58.50
2019-05-21T03:23:52.521Z,63.00
2019-05-21T03:26:26.299Z,63.75
2019-05-21T03:29:00.019Z,62.00
2019-05-21T03:31:33.739Z,62.60
2019-05-21T03:34:07.427Z,61.25
2019-05-21T03:36:41.142Z,60.75
2019-05-21T03:39:19.115Z,62.25
2019-05-21T03:41:50.268Z,61.75
2019-05-21T03:44:23.978Z,56.25
2019-05-21T03:46:57.692Z,61.00
2019-05-21T03:49:31.774Z,61.25
2019-05-21T03:52:05.488Z,62.00
2019-05-21T03:54:39.200Z,61.50
2019-05-21T03:57:13.889Z,59.40
2019-05-21T03:59:47.579Z,59.00
2019-05-21T04:02:21.288Z,62.25
2019-05-21T04:04:55.014Z,59.00
2019-05-21T04:07:28.727Z,61.75
2019-05-21T04:10:03.212Z,58.50
2019-05-21T04:12:36.932Z,58.25
2019-05-21T04:15:10.670Z,60.40
2019-05-21T04:17:44.374Z,56.25
2019-05-21T04:20:18.105Z,57.50
2019-05-21T04:22:51.849Z,50.20
2019-05-21T04:25:25.534Z,58.50
2019-05-21T04:27:59.355Z,57.75
2019-05-21T04:30:33.156Z,58.50
2019-05-21T04:33:06.969Z,56.25
2019-05-21T04:35:40.673Z,55.80
2019-05-21T04:38:14.410Z,56.50
2019-05-21T04:40:48.292Z,54.75
2019-05-21T04:43:22.072Z,56.00
2019-05-21T04:45:55.854Z,54.60
2019-05-21T04:48:29.618Z,57.75
2019-05-21T04:51:03.393Z,55.75
2019-05-21T04:53:37.137Z,57.00
2019-05-21T04:56:10.853Z,56.00
2019-05-21T04:58:44.573Z,56.00
2019-05-21T05:01:18.294Z,53.75
2019-05-21T05:03:52.008Z,56.00
2019-05-21T05:06:25.832Z,53.50
2019-05-21T05:08:59.530Z,54.25
2019-05-21T05:11:33.514Z,53.50
2019-05-21T05:14:07.225Z,52.25
2019-05-21T05:16:40.952Z,54.00
2019-05-21T05:19:14.667Z,52.75
2019-05-21T05:21:48.377Z,55.50
2019-05-21T05:24:22.090Z,51.00
2019-05-21T05:26:55.790Z,51.75
2019-05-21T05:29:29.506Z,49.50
2019-05-21T05:32:03.194Z,52.75
2019-05-21T05:34:36.945Z,53.00
2019-05-21T05:37:10.716Z,50.50
2019-05-21T05:39:44.432Z,53.00
2019-05-21T05:42:18.164Z,47.25
2019-05-21T05:44:52.971Z,52.25
2019-05-21T05:47:29.700Z,49.75
2019-05-21T05:50:04.737Z,55.00
2019-05-21T05:52:38.465Z,46.75
2019-05-21T05:55:13.195Z,46.60
2019-05-21T05:57:46.936Z,48.20
2019-05-21T06:00:21.017Z,41.75
2019-05-21T06:02:54.741Z,47.75
2019-05-21T06:05:28.446Z,40.75
2019-05-21T06:08:02.190Z,43.00
2019-05-21T06:10:39.808Z,41.75
2019-05-21T06:13:11.372Z,43.00
2019-05-21T06:15:45.074Z,38.50
2019-05-21T06:18:18.809Z,43.50
2019-05-21T06:20:52.512Z,40.00
2019-05-21T06:23:26.254Z,40.80
2019-05-21T06:25:59.972Z,40.50
2019-05-21T06:28:33.702Z,34.75
2019-05-21T06:31:07.419Z,39.25
2019-05-21T06:33:41.296Z,37.00
2019-05-21T06:36:15.019Z,35.50
2019-05-21T06:38:48.726Z,34.00
2019-05-21T06:41:22.421Z,36.25
2019-05-21T06:43:56.152Z,34.75
2019-05-21T06:46:29.849Z,33.25
2019-05-21T06:49:03.574Z,37.00
2019-05-21T06:51:37.310Z,33.80
2019-05-21T06:54:11.021Z,32.25
2019-05-21T06:56:44.752Z,35.25
2019-05-21T06:59:18.542Z,33.00
2019-05-21T07:01:52.342Z,34.50
2019-05-21T07:04:26.078Z,36.60
2019-05-21T07:06:59.781Z,33.75
2019-05-21T07:09:33.507Z,34.50
2019-05-21T07:12:07.227Z,32.75
2019-05-21T07:14:40.955Z,38.00
2019-05-21T07:17:14.658Z,39.00
2019-05-21T07:19:48.377Z,36.00
2019-05-21T07:22:22.098Z,35.20
2019-05-21T07:24:55.801Z,35.50
2019-05-21T07:27:29.512Z,29.50
2019-05-21T07:30:04.053Z,35.00
2019-05-21T07:32:37.796Z,33.50
2019-05-21T07:35:12.097Z,31.25
2019-05-21T07:37:45.813Z,27.25
2019-05-21T07:40:19.542Z,29.25
2019-05-21T07:42:53.274Z,30.00
2019-05-21T07:45:27.004Z,32.75
2019-05-21T07:48:00.718Z,30.00
2019-05-21T07:50:35.201Z,27.80
2019-05-21T07:53:08.923Z,26.25
2019-05-21T07:55:42.626Z,26.00
2019-05-21T07:58:16.357Z,27.00
2019-05-21T08:00:50.067Z,23.00
2019-05-21T08:03:23.782Z,24.00
2019-05-21T08:05:57.499Z,24.75
2019-05-21T08:08:31.252Z,20.40
2019-05-21T08:11:05.202Z,23.75
2019-05-21T08:13:38.971Z,25.75
2019-05-21T08:16:13.541Z,27.20
2019-05-21T08:18:47.286Z,27.60
2019-05-21T08:21:21.028Z,23.50
2019-05-21T08:23:54.794Z,28.75
2019-05-21T08:26:28.647Z,25.50
2019-05-21T08:29:02.374Z,26.40
2019-05-21T08:31:36.096Z,28.25
2019-05-21T08:34:09.887Z,25.50
2019-05-21T08:36:43.723Z,25.00
2019-05-21T08:39:28.248Z,25.00
2019-05-21T08:41:53.052Z,21.00
2019-05-21T08:44:26.780Z,25.25
2019-05-21T08:47:00.561Z,23.75
2019-05-21T08:49:34.404Z,27.40
2019-05-21T08:52:08.152Z,26.25
2019-05-21T08:54:41.974Z,27.00
2019-05-21T08:57:15.700Z,26.75
2019-05-21T08:59:49.542Z,22.80
2019-05-21T09:02:23.254Z,24.25
2019-05-21T09:04:57.006Z,21.50
2019-05-21T09:07:30.765Z,23.25
2019-05-21T09:10:06.246Z,23.50
2019-05-21T09:12:39.963Z,24.25
2019-05-21T09:15:15.265Z,24.40
2019-05-21T09:17:48.993Z,24.80
2019-05-21T09:20:22.726Z,23.75
2019-05-21T09:22:57.225Z,23.00
2019-05-21T09:25:36.850Z,22.00
2019-05-21T09:28:10.616Z,22.25
2019-05-21T09:30:44.388Z,23.00
2019-05-21T09:33:18.181Z,21.20
2019-05-21T09:35:51.894Z,22.40
2019-05-21T09:38:25.630Z,22.75
2019-05-21T09:40:59.405Z,23.25
2019-05-21T09:43:33.135Z,26.50
2019-05-21T09:46:06.866Z,27.60
2019-05-21T09:48:40.615Z,23.25
2019-05-21T09:51:19.884Z,22.50
2019-05-21T09:53:49.844Z,24.00
2019-05-21T09:56:23.553Z,22.50
2019-05-21T09:58:57.273Z,25.50
2019-05-21T10:01:31.008Z,25.00
2019-05-21T10:04:04.742Z,26.50
2019-05-21T10:06:38.511Z,27.75
2019-05-21T10:09:13.137Z,24.60
2019-05-21T10:11:47.023Z,24.25
2019-05-21T10:14:20.730Z,24.75
2019-05-21T10:16:54.702Z,23.00
2019-05-21T10:19:28.436Z,24.50
2019-05-21T10:22:02.329Z,23.25
2019-05-21T10:24:36.073Z,25.60
2019-05-21T10:27:09.795Z,23.75
2019-05-21T10:29:43.504Z,25.25
2019-05-21T10:32:17.218Z,28.20
2019-05-21T10:34:50.937Z,23.25
2019-05-21T10:37:24.660Z,28.50
2019-05-21T10:39:58.389Z,25.25
2019-05-21T10:42:32.120Z,24.60
2019-05-21T10:45:05.913Z,28.25
2019-05-21T10:47:39.591Z,28.50
2019-05-21T10:50:13.303Z,28.00
2019-05-21T10:52:47.016Z,24.60
2019-05-21T10:55:20.783Z,25.50
2019-05-21T10:57:54.541Z,25.75
2019-05-21T11:00:28.251Z,24.50
2019-05-21T11:03:02.029Z,26.20
2019-05-21T11:05:35.794Z,24.50
2019-05-21T11:08:25.543Z,27.25
2019-05-21T11:10:44.961Z,27.60
2019-05-21T11:13:18.680Z,27.50
2019-05-21T11:15:52.394Z,26.25
2019-05-21T11:18:26.117Z,31.40
2019-05-21T11:20:59.825Z,25.50
2019-05-21T11:23:33.656Z,29.00
2019-05-21T11:26:07.344Z,31.00
2019-05-21T11:28:41.076Z,29.00
2019-05-21T11:31:14.805Z,31.00
2019-05-21T11:33:48.605Z,30.75
2019-05-21T11:36:22.331Z,26.00
2019-05-21T11:38:56.038Z,28.75
2019-05-21T11:41:29.746Z,33.50
2019-05-21T11:44:03.502Z,32.80
2019-05-21T11:46:37.287Z,32.50
2019-05-21T11:49:10.979Z,31.25
2019-05-21T11:51:44.700Z,32.25
2019-05-21T11:54:18.461Z,32.00
2019-05-21T11:56:52.174Z,32.00
2019-05-21T11:59:25.898Z,33.25
2019-05-21T12:01:59.623Z,34.00
2019-05-21T12:04:33.355Z,30.20
2019-05-21T12:07:07.070Z,33.75
2019-05-21T12:09:40.789Z,31.25
2019-05-21T12:12:14.507Z,30.40
2019-05-21T12:14:48.237Z,32.50
2019-05-21T12:17:21.944Z,36.50
2019-05-21T12:19:55.652Z,35.75
2019-05-21T12:22:29.374Z,30.50
2019-05-21T12:25:03.842Z,35.00
2019-05-21T12:27:37.556Z,30.00
2019-05-21T12:30:11.265Z,33.50
2019-05-21T12:32:45.711Z,30.00
2019-05-21T12:35:19.428Z,31.20
2019-05-21T12:37:53.141Z,34.25
2019-05-21T12:40:26.849Z,33.25
2019-05-21T12:43:00.569Z,28.60
2019-05-21T12:45:34.270Z,31.75
2019-05-21T12:48:07.992Z,29.00
2019-05-21T12:50:41.744Z,29.75
2019-05-21T12:53:16.743Z,29.00
2019-05-21T12:55:50.585Z,33.40
2019-05-21T12:58:24.339Z,29.75
2019-05-21T13:00:58.120Z,30.00
2019-05-21T13:03:31.831Z,30.00
2019-05-21T13:06:05.579Z,32.25
2019-05-21T13:08:39.356Z,28.75
2019-05-21T13:11:14.029Z,29.80
2019-05-21T13:13:47.742Z,24.00
2019-05-21T13:16:21.537Z,32.25
2019-05-21T13:18:55.328Z,36.50
2019-05-21T13:21:29.048Z,36.75
2019-05-21T13:24:02.765Z,37.00
2019-05-21T13:26:36.486Z,38.50
2019-05-21T13:29:10.191Z,40.00
2019-05-21T13:31:43.910Z,37.25
2019-05-21T13:34:17.647Z,37.00
2019-05-21T13:36:51.336Z,33.80
2019-05-21T13:39:25.752Z,36.50
2019-05-21T13:41:59.669Z,32.25
2019-05-21T13:44:33.364Z,31.50
2019-05-21T13:47:07.210Z,31.50
2019-05-21T13:49:41.147Z,31.40
2019-05-21T13:52:14.853Z,31.50
2019-05-21T13:54:48.605Z,34.00
2019-05-21T13:57:22.614Z,26.00
2019-05-21T13:59:56.531Z,31.25
2019-05-21T14:02:30.315Z,30.00
2019-05-21T14:05:04.679Z,27.40
2019-05-21T14:07:38.401Z,27.25
2019-05-21T14:10:18.285Z,25.83
2019-05-21T14:12:48.669Z,29.00
2019-05-21T14:15:22.406Z,27.00
2019-05-21T14:17:56.110Z,20.00
2019-05-21T14:20:29.849Z,28.25
2019-05-21T14:23:03.732Z,27.25
2019-05-21T14:25:37.427Z,26.00
2019-05-21T14:28:11.127Z,25.20
2019-05-21T14:30:44.851Z,24.75
2019-05-21T14:33:18.597Z,29.75
2019-05-21T14:35:52.309Z,26.50
2019-05-21T14:38:26.107Z,25.00
2019-05-21T14:41:00.210Z,26.80
2019-05-21T14:43:33.926Z,20.50
2019-05-21T14:46:07.660Z,26.00
2019-05-21T14:48:41.389Z,28.50
2019-05-21T14:51:15.086Z,26.80
2019-05-21T14:53:48.788Z,19.25
2019-05-21T14:56:22.529Z,24.75
2019-05-21T14:58:56.300Z,26.50
2019-05-21T15:01:30.066Z,23.40
2019-05-21T15:04:03.900Z,27.25
2019-05-21T15:06:37.756Z,22.00
2019-05-21T15:09:11.466Z,24.25
2019-05-21T15:11:45.187Z,26.80
2019-05-21T15:14:18.907Z,25.00
2019-05-21T15:16:52.619Z,26.50
2019-05-21T15:19:26.330Z,25.80
2019-05-21T15:22:00.051Z,28.25
2019-05-21T15:24:33.809Z,30.00
2019-05-21T15:27:07.573Z,31.00
2019-05-21T15:29:41.286Z,27.20
2019-05-21T15:32:15.011Z,26.00
2019-05-21T15:34:48.715Z,27.50
2019-05-21T15:37:22.447Z,30.25
2019-05-21T15:39:56.158Z,25.00
2019-05-21T15:42:30.064Z,26.25
2019-05-21T15:45:05.285Z,25.25
2019-05-21T15:47:39.006Z,22.25
2019-05-21T15:50:13.574Z,25.40
2019-05-21T15:52:47.286Z,24.40
2019-05-21T15:55:21.007Z,23.75
2019-05-21T15:57:54.736Z,24.25
2019-05-21T16:00:28.490Z,18.50
2019-05-21T16:03:02.260Z,20.25
2019-05-21T16:05:36.002Z,21.25
2019-05-21T16:08:09.714Z,24.25
2019-05-21T16:10:43.462Z,19.40
2019-05-21T16:13:17.228Z,13.25
2019-05-21T16:15:50.958Z,19.00
2019-05-21T16:18:24.655Z,19.25
2019-05-21T16:20:58.353Z,18.00
2019-05-21T16:23:32.096Z,20.00
2019-05-21T16:26:05.946Z,21.75
2019-05-21T16:28:39.676Z,18.50
2019-05-21T16:31:13.758Z,20.00
2019-05-21T16:33:47.458Z,20.20
2019-05-21T16:36:21.187Z,22.25
2019-05-21T16:38:55.003Z,20.50
2019-05-21T16:41:43.629Z,18.25
2019-05-21T16:44:04.636Z,18.50
2019-05-21T16:46:38.397Z,21.25
2019-05-21T16:49:12.299Z,17.75
2019-05-21T16:51:46.003Z,20.25
2019-05-21T16:54:19.702Z,20.75
2019-05-21T16:56:53.535Z,22.00
2019-05-21T16:59:27.272Z,21.00
2019-05-21T17:02:00.978Z,21.25
2019-05-21T17:04:34.794Z,16.40
2019-05-21T17:07:08.513Z,24.60
2019-05-21T17:09:42.211Z,21.00
2019-05-21T17:12:15.929Z,24.25
2019-05-21T17:14:50.081Z,22.20
2019-05-21T17:17:23.916Z,23.50
2019-05-21T17:19:57.635Z,20.00
2019-05-21T17:22:31.385Z,24.00
2019-05-21T17:25:06.315Z,25.75
2019-05-21T17:27:40.022Z,22.00
2019-05-21T17:30:15.051Z,23.60
2019-05-21T17:32:48.817Z,23.25
2019-05-21T17:35:22.581Z,19.00
2019-05-21T17:37:56.418Z,24.50
2019-05-21T17:40:30.126Z,22.00
2019-05-21T17:43:03.923Z,23.25
2019-05-21T17:45:37.655Z,24.40
2019-05-21T17:48:11.385Z,23.75
2019-05-21T17:50:48.041Z,23.75
2019-05-21T17:53:22.255Z,21.75
2019-05-21T17:55:55.984Z,23.00
2019-05-21T17:58:30.182Z,24.00
2019-05-21T18:01:03.933Z,23.75
2019-05-21T18:03:37.651Z,26.50
2019-05-21T18:06:12.109Z,24.00
2019-05-21T18:08:45.853Z,25.20
2019-05-21T18:11:19.571Z,16.50
2019-05-21T18:13:53.296Z,25.50
2019-05-21T18:16:27.051Z,23.25
2019-05-21T18:19:01.743Z,28.50
2019-05-21T18:21:35.491Z,26.00
2019-05-21T18:24:10.478Z,26.25
2019-05-21T18:26:44.228Z,24.50
2019-05-21T18:29:17.953Z,28.17
2019-05-21T18:31:53.136Z,26.50
2019-05-21T18:34:26.970Z,29.00
2019-05-21T18:37:00.697Z,28.50
2019-05-21T18:39:34.503Z,30.50
2019-05-21T18:42:21.081Z,32.50
2019-05-21T18:44:43.749Z,27.50
2019-05-21T18:47:17.553Z,24.60
2019-05-21T18:49:51.272Z,29.25
2019-05-21T18:52:25.004Z,26.00
2019-05-21T18:54:58.804Z,32.50
2019-05-21T18:57:32.613Z,31.25
2019-05-21T19:00:08.236Z,31.00
2019-05-21T19:02:41.952Z,28.20
2019-05-21T19:05:15.703Z,33.75
2019-05-21T19:07:49.432Z,31.75
2019-05-21T19:10:23.180Z,28.75
2019-05-21T19:13:00.444Z,31.75
2019-05-21T19:15:32.355Z,36.00
2019-05-21T19:18:06.077Z,35.00
2019-05-21T19:20:39.821Z,33.25
2019-05-21T19:23:13.546Z,37.75
2019-05-21T19:25:47.269Z,30.00
2019-05-21T19:28:21.007Z,36.80
2019-05-21T19:30:54.753Z,35.75
2019-05-21T19:33:28.484Z,38.75
2019-05-21T19:36:02.399Z,35.75
2019-05-21T19:38:37.242Z,37.20
2019-05-21T19:41:11.174Z,38.00
2019-05-21T19:43:44.935Z,38.00
2019-05-21T19:46:18.683Z,38.25
2019-05-21T19:48:52.432Z,34.75
2019-05-21T19:51:26.518Z,36.00
2019-05-21T19:54:00.277Z,35.40
2019-05-21T19:56:36.391Z,34.50
2019-05-21T19:59:09.508Z,35.50
2019-05-21T20:01:43.208Z,31.20
2019-05-21T20:04:16.942Z,34.75
2019-05-21T20:06:50.694Z,37.00
2019-05-21T20:09:26.842Z,36.25
2019-05-21T20:12:00.119Z,40.00
2019-05-21T20:14:33.877Z,36.50
2019-05-21T20:17:07.630Z,40.00
2019-05-21T20:19:41.882Z,36.00
2019-05-21T20:22:15.984Z,36.00
2019-05-21T20:24:49.683Z,39.25
2019-05-21T20:27:23.444Z,36.60
2019-05-21T20:30:11.687Z,39.50
2019-05-21T20:32:33.344Z,39.50
2019-05-21T20:35:07.268Z,36.25
2019-05-21T20:37:41.032Z,38.25
2019-05-21T20:40:14.938Z,36.00
2019-05-21T20:42:48.619Z,36.00
2019-05-21T20:45:22.493Z,36.20
2019-05-21T20:47:57.063Z,39.75
2019-05-21T20:50:30.847Z,39.00
2019-05-21T20:53:04.642Z,40.75
2019-05-21T20:55:38.368Z,41.20
2019-05-21T20:58:12.116Z,36.25
2019-05-21T21:00:45.871Z,37.25
2019-05-21T21:03:19.617Z,40.20
2019-05-21T21:05:53.411Z,40.50
2019-05-21T21:08:27.969Z,37.50
2019-05-21T21:11:01.882Z,42.25
2019-05-21T21:13:35.961Z,39.00
2019-05-21T21:16:10.324Z,38.80
2019-05-21T21:18:44.474Z,35.75
2019-05-21T21:21:18.409Z,39.80
2019-05-21T21:23:52.259Z,36.75
2019-05-21T21:26:26.080Z,41.50
2019-05-21T21:28:59.887Z,40.20
2019-05-21T21:31:33.749Z,44.40
2019-05-21T21:34:07.453Z,37.00
2019-05-21T21:36:41.427Z,40.25
2019-05-21T21:39:15.171Z,41.00
2019-05-21T21:41:48.972Z,42.00
2019-05-21T21:44:33.583Z,43.80
2019-05-21T21:46:58.226Z,38.75
2019-05-21T21:49:31.966Z,39.00
2019-05-21T21:52:05.712Z,44.75
2019-05-21T21:54:39.581Z,46.00
2019-05-21T21:57:14.069Z,41.60
2019-05-21T21:59:47.879Z,46.50
2019-05-21T22:02:27.806Z,41.00
2019-05-21T22:05:01.610Z,47.00
2019-05-21T22:07:35.440Z,47.50
2019-05-21T22:10:09.139Z,42.75
2019-05-21T22:12:42.859Z,47.00
2019-05-21T22:15:16.599Z,45.25
2019-05-21T22:17:50.341Z,48.25
2019-05-21T22:20:24.091Z,50.75
2019-05-21T22:22:57.821Z,50.40
2019-05-21T22:25:31.566Z,47.75
2019-05-21T22:28:05.795Z,47.25
2019-05-21T22:30:39.622Z,45.50
2019-05-21T22:33:13.512Z,38.75
2019-05-21T22:35:47.240Z,37.50
2019-05-21T22:38:21.026Z,46.40
2019-05-21T22:40:54.744Z,45.00
2019-05-21T22:43:28.448Z,45.50
2019-05-21T22:46:02.166Z,44.50
2019-05-21T22:48:35.888Z,44.60
2019-05-21T22:51:09.591Z,43.00
2019-05-21T22:53:43.341Z,42.25
2019-05-21T22:56:17.053Z,45.50
2019-05-21T22:58:50.787Z,49.25
2019-05-21T23:01:24.490Z,45.00
2019-05-21T23:03:58.309Z,43.60
2019-05-21T23:06:32.059Z,41.50
2019-05-21T23:09:06.289Z,41.00
2019-05-21T23:11:40.006Z,40.75
2019-05-21T23:14:13.708Z,39.75
2019-05-21T23:16:47.420Z,44.50
2019-05-21T23:19:24.125Z,39.80
2019-05-21T23:21:56.750Z,42.25
2019-05-21T23:24:30.464Z,40.50
2019-05-21T23:27:04.183Z,43.00
2019-05-21T23:29:37.998Z,44.75
2019-05-21T23:32:11.784Z,40.50
2019-05-21T23:34:45.506Z,42.50
2019-05-21T23:37:19.219Z,41.20
2019-05-21T23:39:52.935Z,42.50
2019-05-21T23:42:29.868Z,40.25
2019-05-21T23:45:02.150Z,43.75
2019-05-21T23:47:35.989Z,40.00
2019-05-21T23:50:11.182Z,45.50
2019-05-21T23:52:44.899Z,42.50
2019-05-21T23:55:18.600Z,43.50
2019-05-21T23:57:52.313Z,42.60
